createdAt,value
2024-02-18T00:01:44.954Z,32.00
2024-02-18T00:04:13.425Z,21.67
2024-02-18T00:06:42.194Z,27.98
2024-02-18T00:09:10.240Z,31.10
2024-02-18T00:11:38.492Z,25.75
2024-02-18T00:14:07.197Z,32.95
2024-02-18T00:16:35.584Z,25.60
2024-02-18T00:19:04.026Z,32.00
2024-02-18T00:21:32.458Z,18.50
2024-02-18T00:24:00.557Z,18.92
2024-02-18T00:26:39.745Z,21.00
2024-02-18T00:29:18.432Z,20.17
2024-02-18T00:31:47.111Z,21.65
2024-02-18T00:34:21.647Z,17.67
2024-02-18T00:36:52.093Z,26.88
2024-02-18T00:39:20.845Z,17.05
2024-02-18T00:41:48.918Z,21.05
2024-02-18T00:44:17.118Z,20.48
2024-02-18T00:46:51.196Z,19.40
2024-02-18T00:49:26.204Z,25.90
2024-02-18T00:51:55.080Z,28.83
2024-02-18T00:54:23.245Z,16.98
2024-02-18T00:56:51.991Z,29.10
2024-02-18T00:59:20.487Z,20.55
2024-02-18T01:01:48.768Z,18.70
2024-02-18T01:04:17.338Z,15.23
2024-02-18T01:06:45.678Z,30.77
2024-02-18T01:09:14.281Z,15.18
2024-02-18T01:11:42.347Z,19.75
2024-02-18T01:14:10.477Z,25.15
2024-02-18T01:16:40.924Z,25.75
2024-02-18T01:19:09.125Z,19.85
2024-02-18T01:21:37.730Z,29.48
2024-02-18T01:24:06.016Z,23.90
2024-02-18T01:26:34.325Z,20.58
2024-02-18T01:29:02.780Z,21.42
2024-02-18T01:31:30.745Z,26.63
2024-02-18T01:33:58.935Z,19.75
2024-02-18T01:36:27.317Z,32.58
2024-02-18T01:38:55.542Z,23.67
2024-02-18T01:41:23.830Z,18.88
2024-02-18T01:43:52.030Z,21.77
2024-02-18T01:46:20.826Z,30.80
2024-02-18T01:48:50.480Z,19.40
2024-02-18T01:51:18.649Z,19.67
2024-02-18T01:53:46.948Z,18.13
2024-02-18T01:56:20.512Z,25.60
2024-02-18T01:58:49.162Z,25.77
2024-02-18T02:01:19.178Z,17.00
2024-02-18T02:03:48.424Z,19.67
2024-02-18T02:06:17.749Z,17.67
2024-02-18T02:08:47.282Z,20.63
2024-02-18T02:11:16.705Z,17.67
2024-02-18T02:13:44.870Z,21.25
2024-02-18T02:16:13.692Z,22.77
2024-02-18T02:18:42.224Z,25.80
2024-02-18T02:21:10.820Z,18.75
2024-02-18T02:23:39.048Z,19.13
2024-02-18T02:26:08.585Z,23.67
2024-02-18T02:28:45.726Z,29.00
2024-02-18T02:31:17.568Z,24.83
2024-02-18T02:33:48.625Z,13.82
2024-02-18T02:36:21.259Z,22.38
2024-02-18T02:38:49.278Z,22.00
2024-02-18T02:41:17.275Z,20.75
2024-02-18T02:43:45.284Z,20.63
2024-02-18T02:46:13.892Z,27.90
2024-02-18T02:48:42.501Z,17.65
2024-02-18T02:51:11.259Z,22.70
2024-02-18T02:53:39.413Z,12.05
2024-02-18T02:56:10.071Z,24.35
2024-02-18T02:58:38.850Z,20.40
2024-02-18T03:01:07.239Z,17.50
2024-02-18T03:03:35.832Z,18.02
2024-02-18T03:06:03.876Z,20.08
2024-02-18T03:08:31.967Z,18.98
2024-02-18T03:11:01.126Z,17.67
2024-02-18T03:13:29.258Z,13.95
2024-02-18T03:15:58.194Z,23.33
2024-02-18T03:18:26.897Z,25.85
2024-02-18T03:20:55.585Z,17.42
2024-02-18T03:23:28.185Z,12.20
2024-02-18T03:25:56.843Z,20.02
2024-02-18T03:28:25.207Z,16.30
2024-02-18T03:30:54.129Z,19.85
2024-02-18T03:33:22.742Z,15.57
2024-02-18T03:35:51.247Z,21.13
2024-02-18T03:38:19.692Z,20.27
2024-02-18T03:40:48.383Z,14.63
2024-02-18T03:43:16.850Z,18.55
2024-02-18T03:45:45.119Z,10.13
2024-02-18T03:48:13.261Z,13.85
2024-02-18T03:50:41.284Z,21.92
2024-02-18T03:53:09.564Z,11.70
2024-02-18T03:55:37.531Z,14.77
2024-02-18T03:58:05.923Z,14.38
2024-02-18T04:00:34.389Z,13.88
2024-02-18T04:03:02.614Z,14.80
2024-02-18T04:05:30.768Z,14.98
2024-02-18T04:07:59.092Z,15.70
2024-02-18T04:10:27.483Z,20.75
2024-02-18T04:12:55.589Z,10.23
2024-02-18T04:15:24.154Z,15.50
2024-02-18T04:17:52.671Z,11.02
2024-02-18T04:20:20.924Z,22.40
2024-02-18T04:22:49.325Z,13.43
2024-02-18T04:25:17.726Z,11.35
2024-02-18T04:27:45.848Z,11.85
2024-02-18T04:30:14.291Z,11.82
2024-02-18T04:32:42.830Z,15.90
2024-02-18T04:35:11.110Z,15.75
2024-02-18T04:37:39.238Z,12.07
2024-02-18T04:40:08.012Z,15.57
2024-02-18T04:42:36.403Z,15.32
2024-02-18T04:45:07.035Z,19.33
2024-02-18T04:47:35.724Z,18.48
2024-02-18T04:50:05.458Z,17.98
2024-02-18T04:52:36.187Z,15.77
2024-02-18T04:55:05.976Z,13.82
2024-02-18T04:57:34.373Z,37.72
2024-02-18T05:00:02.470Z,18.58
2024-02-18T05:02:30.692Z,22.23
2024-02-18T05:04:58.912Z,15.32
2024-02-18T05:07:27.608Z,21.70
2024-02-18T05:09:55.826Z,17.48
2024-02-18T05:12:24.283Z,16.20
2024-02-18T05:14:52.289Z,18.35
2024-02-18T05:17:20.944Z,24.48
2024-02-18T05:19:50.722Z,29.40
2024-02-18T05:22:19.913Z,27.30
2024-02-18T05:24:49.293Z,25.20
2024-02-18T05:27:20.514Z,26.77
2024-02-18T05:29:48.627Z,26.77
2024-02-18T05:32:16.859Z,28.33
2024-02-18T05:34:45.162Z,25.48
2024-02-18T05:37:14.327Z,27.33
2024-02-18T05:39:44.459Z,33.65
2024-02-18T05:42:13.216Z,31.98
2024-02-18T05:44:41.450Z,28.80
2024-02-18T05:47:09.381Z,37.22
2024-02-18T05:49:42.263Z,31.88
2024-02-18T05:52:12.417Z,31.73
2024-02-18T05:54:41.192Z,37.70
2024-02-18T05:57:09.287Z,35.13
2024-02-18T05:59:37.524Z,32.55
2024-02-18T06:02:05.804Z,38.60
2024-02-18T06:04:34.083Z,38.95
2024-02-18T06:07:02.602Z,40.55
2024-02-18T06:09:31.451Z,39.97
2024-02-18T06:11:59.838Z,40.83
2024-02-18T06:14:26.762Z,39.20
2024-02-18T06:16:54.755Z,38.97
2024-02-18T06:19:22.907Z,41.38
2024-02-18T06:21:51.434Z,46.88
2024-02-18T06:24:19.475Z,45.33
2024-02-18T06:26:47.417Z,45.00
2024-02-18T06:29:15.276Z,47.58
2024-02-18T06:31:43.176Z,47.03
2024-02-18T06:34:11.278Z,47.97
2024-02-18T06:36:43.290Z,50.58
2024-02-18T06:39:12.260Z,52.92
2024-02-18T06:41:42.829Z,51.72
2024-02-18T06:44:10.820Z,53.70
2024-02-18T06:46:38.725Z,57.85
2024-02-18T06:49:07.061Z,52.00
2024-02-18T06:51:35.245Z,57.80
2024-02-18T06:54:05.744Z,72.05
2024-02-18T06:56:33.685Z,63.83
2024-02-18T06:59:01.915Z,62.13
2024-02-18T07:01:30.969Z,64.97
2024-02-18T07:03:59.128Z,67.65
2024-02-18T07:06:27.165Z,64.22
2024-02-18T07:08:55.692Z,72.25
2024-02-18T07:11:26.879Z,71.25
2024-02-18T07:13:55.059Z,68.10
2024-02-18T07:16:23.107Z,82.60
2024-02-18T07:18:51.268Z,66.30
2024-02-18T07:21:19.587Z,69.03
2024-02-18T07:23:48.257Z,80.75
2024-02-18T07:26:17.179Z,75.88
2024-02-18T07:28:45.132Z,74.07
2024-02-18T07:31:13.115Z,81.60
2024-02-18T07:33:41.277Z,76.15
2024-02-18T07:36:10.931Z,75.10
2024-02-18T07:38:38.864Z,72.13
2024-02-18T07:41:06.769Z,72.22
2024-02-18T07:43:34.822Z,78.80
2024-02-18T07:46:02.806Z,73.00
2024-02-18T07:48:30.976Z,76.75
2024-02-18T07:50:58.930Z,78.28
2024-02-18T07:53:26.815Z,77.30
2024-02-18T07:55:54.781Z,80.97
2024-02-18T07:58:22.717Z,75.35
2024-02-18T08:00:50.630Z,74.75
2024-02-18T08:03:18.581Z,73.85
2024-02-18T08:05:47.771Z,74.22
2024-02-18T08:08:16.279Z,80.57
2024-02-18T08:10:44.366Z,77.60
2024-02-18T08:13:12.504Z,65.47
2024-02-18T08:15:40.540Z,89.57
2024-02-18T08:18:09.891Z,77.22
2024-02-18T08:20:41.605Z,87.60
2024-02-18T08:23:10.486Z,80.60
2024-02-18T08:25:38.503Z,89.30
2024-02-18T08:28:06.733Z,82.10
2024-02-18T08:30:34.725Z,79.57
2024-02-18T08:33:04.962Z,87.45
2024-02-18T08:35:34.260Z,81.03
2024-02-18T08:38:02.118Z,77.13
2024-02-18T08:40:30.084Z,83.05
2024-02-18T08:42:58.187Z,87.93
2024-02-18T08:45:27.836Z,86.28
2024-02-18T08:47:57.064Z,89.50
2024-02-18T08:50:27.210Z,75.95
2024-02-18T08:52:55.245Z,80.15
2024-02-18T08:55:26.367Z,81.30
2024-02-18T08:57:56.916Z,87.65
2024-02-18T09:00:25.057Z,82.05
2024-02-18T09:02:53.148Z,84.38
2024-02-18T09:05:21.208Z,74.80
2024-02-18T09:07:49.139Z,76.38
2024-02-18T09:10:17.649Z,78.78
2024-02-18T09:12:45.980Z,73.90
2024-02-18T09:15:14.112Z,68.10
2024-02-18T09:17:42.109Z,71.25
2024-02-18T09:20:10.592Z,67.22
2024-02-18T09:22:38.598Z,71.57
2024-02-18T09:25:07.502Z,76.43
2024-02-18T09:27:35.801Z,79.18
2024-02-18T09:30:03.842Z,68.40
2024-02-18T09:32:31.869Z,69.00
2024-02-18T09:34:59.897Z,64.25
2024-02-18T09:37:27.977Z,62.78
2024-02-18T09:39:57.087Z,68.13
2024-02-18T09:42:25.299Z,64.32
2024-02-18T09:44:54.822Z,60.85
2024-02-18T09:47:26.647Z,62.28
2024-02-18T09:49:55.274Z,65.20
2024-02-18T09:52:25.924Z,64.03
2024-02-18T09:54:58.146Z,55.95
2024-02-18T09:57:26.273Z,55.15
2024-02-18T09:59:54.365Z,60.08
2024-02-18T10:02:24.674Z,58.55
2024-02-18T10:04:52.800Z,49.42
2024-02-18T10:07:22.077Z,50.58
2024-02-18T10:09:50.226Z,55.50
2024-02-18T10:12:18.889Z,51.70
2024-02-18T10:15:04.289Z,47.58
2024-02-18T10:17:33.357Z,57.42
2024-02-18T10:20:02.275Z,50.08
2024-02-18T10:22:30.878Z,50.33
2024-02-18T10:24:59.059Z,48.50
2024-02-18T10:27:27.216Z,41.88
2024-02-18T10:29:55.271Z,48.42
2024-02-18T10:32:23.181Z,42.53
2024-02-18T10:34:51.804Z,44.38
2024-02-18T10:37:32.150Z,53.28
2024-02-18T10:40:18.031Z,37.45
2024-02-18T10:42:55.379Z,35.70
2024-02-18T10:45:23.744Z,39.80
2024-02-18T10:47:56.299Z,41.17
2024-02-18T10:50:31.424Z,39.42
2024-02-18T10:53:15.717Z,37.22
2024-02-18T10:56:20.401Z,33.55
2024-02-18T10:59:04.032Z,35.03
2024-02-18T11:04:14.066Z,32.88
2024-02-18T11:06:44.641Z,32.33
2024-02-18T11:09:14.006Z,31.30
2024-02-18T11:11:44.410Z,29.48
2024-02-18T11:14:14.243Z,33.30
2024-02-18T11:16:46.924Z,27.77
2024-02-18T11:19:16.079Z,26.10
2024-02-18T11:21:45.663Z,26.63
2024-02-18T11:24:15.001Z,22.15
2024-02-18T11:26:46.521Z,22.08
2024-02-18T11:29:14.552Z,24.35
2024-02-18T11:31:43.082Z,30.38
2024-02-18T11:34:11.361Z,28.88
2024-02-18T11:36:39.581Z,22.42
2024-02-18T11:39:09.415Z,23.35
2024-02-18T11:41:38.255Z,25.60
2024-02-18T11:44:15.834Z,20.92
2024-02-18T11:46:46.445Z,24.88
2024-02-18T11:49:15.483Z,23.85
2024-02-18T11:51:43.561Z,22.30
2024-02-18T11:54:12.299Z,23.60
2024-02-18T11:56:41.372Z,22.15
2024-02-18T11:59:10.026Z,25.80
2024-02-18T12:01:38.758Z,24.63
2024-02-18T12:04:07.164Z,21.10
2024-02-18T12:06:35.772Z,20.88
2024-02-18T12:09:15.563Z,20.40
2024-02-18T12:11:47.678Z,21.20
2024-02-18T12:14:15.810Z,20.88
2024-02-18T12:16:46.963Z,20.70
2024-02-18T12:19:16.577Z,19.92
2024-02-18T12:21:57.000Z,20.80
2024-02-18T12:24:27.915Z,20.15
2024-02-18T12:26:56.511Z,18.60
2024-02-18T12:29:25.560Z,19.98
2024-02-18T12:31:55.977Z,19.95
2024-02-18T12:34:25.018Z,22.25
2024-02-18T12:36:54.228Z,20.42
2024-02-18T12:39:24.333Z,24.63
2024-02-18T12:41:52.526Z,18.30
2024-02-18T12:45:01.552Z,20.05
2024-02-18T12:47:11.694Z,19.80
2024-02-18T12:49:39.963Z,22.17
2024-02-18T12:52:17.185Z,20.55
2024-02-18T12:54:45.184Z,16.88
2024-02-18T12:57:14.425Z,18.08
2024-02-18T12:59:42.888Z,17.63
2024-02-18T13:02:11.078Z,24.38
2024-02-18T13:04:41.788Z,14.90
2024-02-18T13:07:11.719Z,20.95
2024-02-18T13:09:40.223Z,17.73
2024-02-18T13:12:08.489Z,18.85
2024-02-18T13:14:38.804Z,15.27
2024-02-18T13:17:07.763Z,15.73
2024-02-18T13:19:37.493Z,20.05
2024-02-18T13:22:06.342Z,23.25
2024-02-18T13:24:38.712Z,13.85
2024-02-18T13:27:07.369Z,16.40
2024-02-18T13:29:37.594Z,15.25
2024-02-18T13:32:07.652Z,12.15
2024-02-18T13:34:35.740Z,15.15
2024-02-18T13:37:03.994Z,13.45
2024-02-18T13:39:32.007Z,16.75
2024-02-18T13:42:00.355Z,15.77
2024-02-18T13:44:28.339Z,16.70
2024-02-18T13:46:58.240Z,17.70
2024-02-18T13:49:27.390Z,11.98
2024-02-18T13:51:55.343Z,12.60
2024-02-18T13:54:23.543Z,14.27
2024-02-18T13:56:51.378Z,14.98
2024-02-18T13:59:19.273Z,13.80
2024-02-18T14:01:48.396Z,13.52
2024-02-18T14:04:16.777Z,12.82
2024-02-18T14:06:44.788Z,12.15
2024-02-18T14:09:13.873Z,12.25
2024-02-18T14:11:43.217Z,12.35
2024-02-18T14:14:12.391Z,12.30
2024-02-18T14:16:40.687Z,10.85
2024-02-18T14:19:09.374Z,12.10
2024-02-18T14:21:37.420Z,11.93
2024-02-18T14:24:06.043Z,11.25
2024-02-18T14:34:43.795Z,14.18
2024-02-18T14:37:11.892Z,25.45
2024-02-18T14:39:43.604Z,15.07
2024-02-18T14:42:12.627Z,11.82
2024-02-18T14:44:40.669Z,13.70
2024-02-18T15:24:54.667Z,9.63
2024-02-18T15:51:35.260Z,10.55
2024-02-18T16:21:02.388Z,11.15
2024-02-18T16:23:30.917Z,20.05
2024-02-18T16:25:59.951Z,14.15
2024-02-18T16:28:28.929Z,16.63
2024-02-18T16:33:28.617Z,18.08
2024-02-18T16:35:57.489Z,13.07
2024-02-18T16:38:27.768Z,22.92
2024-02-18T16:40:59.290Z,20.60
2024-02-18T16:43:29.653Z,15.73
2024-02-18T16:45:58.423Z,15.75
2024-02-18T16:48:26.571Z,18.90
2024-02-18T16:50:54.876Z,16.65
2024-02-18T16:53:23.015Z,15.23
2024-02-18T16:55:53.386Z,20.65
2024-02-18T16:58:21.717Z,19.17
2024-02-18T17:00:49.912Z,21.17
2024-02-18T17:03:18.042Z,23.17
2024-02-18T17:05:46.181Z,26.40
2024-02-18T17:08:14.193Z,21.00
2024-02-18T17:10:42.548Z,18.50
2024-02-18T17:13:12.025Z,20.25
2024-02-18T17:15:41.521Z,17.60
2024-02-18T17:18:09.725Z,19.13
2024-02-18T17:20:38.173Z,24.00
2024-02-18T17:23:08.884Z,16.88
2024-02-18T17:25:39.416Z,18.15
2024-02-18T17:28:08.836Z,19.75
2024-02-18T17:30:36.916Z,15.80
2024-02-18T17:33:05.497Z,19.10
2024-02-18T17:35:34.965Z,16.25
2024-02-18T17:38:04.405Z,18.65
2024-02-18T17:40:39.953Z,17.38
2024-02-18T17:43:07.973Z,16.48
2024-02-18T17:45:36.142Z,14.85
2024-02-18T17:48:04.307Z,15.88
2024-02-18T17:50:33.782Z,12.63
2024-02-18T17:53:02.184Z,23.23
2024-02-18T17:55:31.350Z,14.75
2024-02-18T17:57:59.578Z,13.63
2024-02-18T18:00:28.210Z,10.63
2024-02-18T18:02:57.793Z,13.40
2024-02-18T18:05:26.342Z,12.80
2024-02-18T18:07:56.766Z,12.20
2024-02-18T18:10:28.535Z,13.32
2024-02-18T18:12:59.323Z,11.85
2024-02-18T18:15:28.206Z,13.35
2024-02-18T18:17:57.112Z,10.55
2024-02-18T18:20:26.438Z,11.80
2024-02-18T18:22:56.000Z,10.52
2024-02-18T18:25:24.093Z,10.07
2024-02-18T18:27:52.131Z,9.52
2024-02-18T18:30:20.265Z,9.23
2024-02-18T18:32:49.943Z,9.15
2024-02-18T18:35:18.605Z,36.88
2024-02-18T18:37:48.306Z,110.22
2024-02-18T18:40:16.523Z,46.92
2024-02-18T18:42:44.978Z,14.57
2024-02-18T18:45:14.585Z,16.77
2024-02-18T18:47:46.880Z,12.20
2024-02-18T18:50:15.565Z,39.03
2024-02-18T18:52:43.696Z,33.05
2024-02-18T18:55:12.832Z,25.77
2024-02-18T18:57:40.934Z,63.25
2024-02-18T19:00:11.310Z,35.90
2024-02-18T19:02:39.794Z,54.78
2024-02-18T19:05:08.689Z,37.47
2024-02-18T19:07:36.844Z,47.35
2024-02-18T19:10:06.720Z,28.50
2024-02-18T19:12:35.202Z,25.95
2024-02-18T19:15:05.773Z,43.22
2024-02-18T19:17:36.366Z,31.92
2024-02-18T19:20:06.971Z,55.63
2024-02-18T19:22:34.936Z,28.73
2024-02-18T19:25:04.184Z,35.58
2024-02-18T19:27:32.277Z,22.27
2024-02-18T19:30:02.007Z,18.23
2024-02-18T19:32:30.131Z,27.73
2024-02-18T19:34:59.896Z,19.73
2024-02-18T19:37:29.649Z,18.25
2024-02-18T19:39:58.008Z,19.23
2024-02-18T19:42:26.191Z,19.55
2024-02-18T19:44:54.152Z,20.02
2024-02-18T19:47:22.364Z,18.33
2024-02-18T19:49:51.640Z,15.73
2024-02-18T19:52:20.794Z,20.55
2024-02-18T19:54:49.444Z,22.25
2024-02-18T19:57:18.999Z,24.98
2024-02-18T19:59:47.619Z,26.13
2024-02-18T20:02:15.999Z,26.42
2024-02-18T20:04:44.436Z,28.17
2024-02-18T20:07:13.510Z,23.92
2024-02-18T20:09:41.545Z,23.55
2024-02-18T20:12:09.934Z,24.58
2024-02-18T20:14:41.578Z,24.40
2024-02-18T20:17:13.044Z,26.92
2024-02-18T20:19:44.478Z,26.42
2024-02-18T20:22:15.366Z,25.20
2024-02-18T20:24:48.991Z,28.08
2024-02-18T20:27:17.306Z,24.48
2024-02-18T20:29:45.624Z,25.60
2024-02-18T20:32:15.917Z,24.67
2024-02-18T20:34:45.267Z,29.20
2024-02-18T20:37:13.462Z,29.52
2024-02-18T20:39:46.861Z,34.17
2024-02-18T20:42:15.393Z,26.75
2024-02-18T20:44:43.665Z,26.33
2024-02-18T20:47:13.168Z,23.73
2024-02-18T20:49:46.731Z,30.10
2024-02-18T20:52:16.897Z,29.05
2024-02-18T20:54:46.874Z,30.10
2024-02-18T20:57:15.430Z,35.22
2024-02-18T20:59:45.897Z,33.75
2024-02-18T21:02:14.242Z,38.97
2024-02-18T21:04:45.522Z,36.85
2024-02-18T21:07:15.324Z,30.33
2024-02-18T21:09:43.445Z,36.50
2024-02-18T21:12:12.250Z,30.13
2024-02-18T21:14:40.270Z,37.20
2024-02-18T21:17:08.438Z,34.00
2024-02-18T21:19:44.322Z,35.63
2024-02-18T21:22:12.726Z,34.20
2024-02-18T21:24:43.392Z,33.22
2024-02-18T21:27:11.755Z,34.97
2024-02-18T21:29:42.936Z,37.00
2024-02-18T21:32:12.239Z,38.85
2024-02-18T21:34:42.641Z,37.03
2024-02-18T21:37:11.901Z,39.63
2024-02-18T21:39:47.791Z,36.83
2024-02-18T21:42:17.926Z,45.80
2024-02-18T21:44:47.121Z,39.03
2024-02-18T21:47:19.261Z,38.78
2024-02-18T21:49:47.540Z,35.92
2024-02-18T21:52:15.956Z,42.35
2024-02-18T21:54:46.170Z,41.53
2024-02-18T21:57:14.320Z,40.17
2024-02-18T21:59:42.292Z,39.72
2024-02-18T22:02:10.897Z,38.05
2024-02-18T22:04:39.226Z,36.67
2024-02-18T22:07:16.409Z,35.53
2024-02-18T22:09:47.020Z,39.47
2024-02-18T22:12:15.640Z,41.60
2024-02-18T22:14:43.794Z,37.78
2024-02-18T22:17:14.008Z,34.90
2024-02-18T22:19:42.208Z,40.80
2024-02-18T22:22:21.255Z,38.60
2024-02-18T22:24:51.999Z,42.35
2024-02-18T22:27:20.100Z,43.47
2024-02-18T22:29:49.323Z,43.13
2024-02-18T22:32:17.752Z,36.85
2024-02-18T22:34:46.415Z,39.72
2024-02-18T22:37:15.531Z,38.38
2024-02-18T22:39:44.471Z,36.05
2024-02-18T22:42:12.553Z,42.17
2024-02-18T22:44:42.475Z,39.95
2024-02-18T22:47:11.164Z,38.97
2024-02-18T22:49:39.761Z,39.90
2024-02-18T22:52:08.365Z,36.35
2024-02-18T22:54:36.565Z,33.72
2024-02-18T22:57:04.815Z,29.33
2024-02-18T22:59:33.268Z,31.55
2024-02-18T23:02:01.987Z,29.30
2024-02-18T23:04:31.540Z,7.88
2024-02-18T23:07:04.509Z,0.80
2024-02-18T23:09:33.119Z,0.10
2024-02-18T23:12:01.718Z,0.00
2024-02-18T23:14:30.248Z,0.10
2024-02-18T23:16:58.350Z,0.00
2024-02-18T23:19:27.243Z,0.05
2024-02-18T23:21:55.452Z,0.00
2024-02-18T23:24:23.941Z,0.10
2024-02-18T23:26:52.246Z,0.00
2024-02-18T23:29:20.196Z,0.00
2024-02-18T23:31:48.300Z,0.10
2024-02-18T23:34:16.582Z,0.03
2024-02-18T23:36:45.067Z,0.00
2024-02-18T23:39:14.534Z,0.00
2024-02-18T23:41:42.590Z,0.40
2024-02-18T23:44:10.819Z,0.00
2024-02-18T23:46:39.472Z,0.00
2024-02-18T23:49:08.087Z,0.00
2024-02-18T23:51:37.053Z,0.00
2024-02-18T23:54:05.307Z,0.00
2024-02-18T23:56:33.699Z,0.00
2024-02-18T23:59:03.054Z,0.00
